• Join FlightAware (Why Join?)
  • Login
  • US Flag 
11:23AM EST


 

Airport Tracker/Info


-or-


 

Live Flight TrackerFlight Track Log ✈ DAL1562 ✈ 12-Apr-2013 ✈ KPHL - KDTW

Flight Track Log - Related Links

Times and Time Zones

All times are in EDT time to prevent confusion due to time zone crossing. See the DAL1562 flight status page for this flight to view local times or setup timezone preferences in your user account.

Time Position Orientation Groundspeed Altitude Reporting Facility
EDT Latitude Longitude Course Direction KTS MPH feet Rate Location/Type
06:23PM 39.8833 -75.2167 96° East 161 185 800  Level Philadelphia TRACON
06:23PM 39.8814 -75.1931 96° East 188 216 1,300 1,620 Climbing FAA TRACON SMA TRACON (SMA)
06:24PM 39.8892 -75.1617 72° East 243 280 2,100 1,920 Climbing FAA TRACON SMA TRACON (SMA)
06:24PM 39.8975 -75.1331 69° East 264 304 2,600 1,800 Climbing FAA TRACON SMA TRACON (SMA)
06:24PM 39.9103 -75.1067 58° Northeast 292 336 3,300 2,520 Climbing FAA TRACON SMA TRACON (SMA)
06:25PM 39.9328 -75.0947 22° Northeast 290 334 4,300 3,600 Climbing FAA TRACON SMA TRACON (SMA)
06:25PM 39.9572 -75.1014 348° North 282 325 5,700 3,420 Climbing FAA TRACON SMA TRACON (SMA)
06:25PM 39.9736 -75.1278 309° West 269 310 6,600 2,700 Climbing FAA TRACON SMA TRACON (SMA)
06:26PM 39.9778 -75.1581 280° West 277 319 7,500 3,420 Climbing FAA TRACON SMA TRACON (SMA)
06:26PM 39.9750 -75.1933 264° West 257 296 8,900 3,120 Climbing FAA TRACON SMA TRACON (SMA)
06:26PM 39.9717 -75.2225 262° West 259 298 9,600 1,620 Climbing FAA TRACON SMA TRACON (SMA)
06:27PM 39.9675 -75.2508 259° West 262 302 10,000 720 Climbing FAA TRACON SMA TRACON (SMA)
06:27PM 39.9631 -75.2886 261° West 285 328 10,100 120 Climbing FAA TRACON SMA TRACON (SMA)
06:27PM 39.9589 -75.3236 261° West 316 364 10,100 -180 Level FAA TRACON SMA TRACON (SMA)
06:28PM 39.9536 -75.3700 262° West 345 397 10,000 -180 Descending FAA TRACON SMA TRACON (SMA)
06:28PM 39.9497 -75.4069 262° West 337 388 10,000  Level FAA TRACON SMA TRACON (SMA)
06:28PM 39.9453 -75.4453 261° West 342 394 10,000  Level FAA TRACON SMA TRACON (SMA)
06:29PM 39.9397 -75.4928 261° West 345 397 10,000  Level FAA TRACON SMA TRACON (SMA)
06:29PM 39.9378 -75.5297 266° West 346 398 10,000 120 Level FAA TRACON SMA TRACON (SMA)
06:29PM 39.9369 -75.5697 268° West 345 397 10,100 1,500 Climbing FAA TRACON SMA TRACON (SMA)
06:30PM 39.9375 -75.6175 271° West 348 400 11,000 1,620 Climbing FAA TRACON SMA TRACON (SMA)
06:30PM 39.9375 -75.6269 270° West 349 402 11,200 180 Climbing FAA TRACON SMA TRACON (SMA)
06:31PM 39.9375 -75.6269 270° West 349 402 11,200 2,220 Level FAA TRACON SMA TRACON (SMA)
06:33PM 39.9344 -76.0583 270° West 368 423 18,000 2,520 Climbing New York Center
06:34PM 39.9364 -76.1992 271° West 379 436 19,800 1,680 Climbing New York Center
06:35PM 39.9339 -76.3453 269° West 394 453 21,400 1,380 Climbing New York Center
06:36PM 39.9333 -76.4886 270° West 404 465 22,700 1,140 Climbing New York Center
06:37PM 39.9297 -76.6428 268° West 404 465 23,800 1,320 Climbing New York Center
06:38PM 39.9433 -76.7900 277° West 416 479 25,300 1,560 Climbing New York Center
06:39PM 39.9711 -76.9389 284° West 424 488 26,900 1,500 Climbing New York Center
06:40PM 39.9967 -77.0819 283° West 424 488 28,400 1,440 Climbing New York Center
06:41PM 40.0225 -77.2253 283° West 413 475 29,900 600 Climbing New York Center
06:43PM 40.0656 -77.4469 284° West 400 460 30,000  Climbing Cleveland Center
06:44PM 40.0881 -77.5869 282° West 394 453 30,000  Level Cleveland Center
06:45PM 40.1147 -77.7244 284° West 394 453 30,000  Level Cleveland Center
06:46PM 40.1347 -77.8647 281° West 394 453 30,000  Level Cleveland Center
06:47PM 40.1358 -78.0031 271° West 389 448 30,000  Level Cleveland Center
06:48PM 40.1369 -78.1417 271° West 384 442 30,000  Level Cleveland Center
06:49PM 40.1378 -78.2803 270° West 384 442 30,000  Level Cleveland Center
06:50PM 40.1403 -78.4186 271° West 384 442 30,000  Level Cleveland Center
06:51PM 40.1428 -78.5542 271° West 384 442 30,000  Level Cleveland Center
06:52PM 40.1683 -78.6922 284° West 384 442 30,000  Level Cleveland Center
06:53PM 40.2017 -78.8269 288° West 389 448 30,000  Level Cleveland Center
06:54PM 40.2350 -78.9650 288° West 394 453 30,000  Level Cleveland Center
06:55PM 40.2722 -79.1000 290° West 399 459 30,000  Level Cleveland Center
06:56PM 40.3197 -79.2353 295° West 404 465 30,000  Level Cleveland Center
06:57PM 40.3756 -79.3786 297° West 409 471 30,000  Level Cleveland Center
06:58PM 40.4206 -79.4978 296° West 409 471 30,000  Level Cleveland Center
06:59PM 40.4675 -79.6253 296° West 402 463 30,000  Level Cleveland Center
07:00PM 40.5144 -79.7556 295° West 402 463 30,000  Level Cleveland Center
07:01PM 40.5633 -79.8861 296° West 397 457 30,000  Level Cleveland Center
07:02PM 40.6119 -80.0197 296° West 397 457 30,000  Level Cleveland Center
07:03PM 40.6583 -80.1533 295° West 397 457 30,000  Level Cleveland Center
07:04PM 40.7067 -80.2900 295° West 397 457 30,000  Level Cleveland Center
07:05PM 40.7550 -80.4242 295° West 397 457 30,000  Level Cleveland Center
07:06PM 40.8050 -80.5583 296° West 397 457 30,000  Level Cleveland Center
07:07PM 40.8550 -80.7039 294° West 397 457 30,000  Level Cleveland Center
07:08PM 40.8986 -80.8219 296° West 397 457 30,000  Level Cleveland Center
07:09PM 40.9461 -80.9569 295° West 402 463 30,000  Level Cleveland Center
07:10PM 40.9978 -81.1114 294° West 407 468 30,000 -180 Level Cleveland Center
07:11PM 41.0450 -81.2494 294° West 407 468 29,700 -600 Descending Cleveland Center
07:12PM 41.0942 -81.3875 295° West 412 474 28,900 -600 Descending Cleveland Center
07:13PM 41.1392 -81.5122 296° West 417 480 28,500 -420 Descending Cleveland Center
07:14PM 41.1878 -81.6453 296° West 417 480 28,100 -540 Descending Cleveland Center
07:15PM 41.2322 -81.7869 293° West 417 480 27,500 -780 Descending Cleveland Center
07:16PM 41.3119 -82.0183 295° West 415 478 26,200 -840 Descending FAA TRACON SMA TRACON (SMA)
07:17PM 41.3306 -82.0742 294° West 415 478 25,900 -960 Descending FAA TRACON SMA TRACON (SMA)
07:17PM 41.3403 -82.1017 295° West 414 476 25,600 -1,380 Descending FAA TRACON SMA TRACON (SMA)
07:17PM 41.3592 -82.1567 295° West 412 474 25,000 -2,400 Descending FAA TRACON SMA TRACON (SMA)
07:18PM 41.3806 -82.2089 299° West 409 471 24,000 -2,280 Descending FAA TRACON SMA TRACON (SMA)
07:18PM 41.3931 -82.2328 305° West 403 464 23,500 -2,280 Descending FAA TRACON SMA TRACON (SMA)
07:18PM 41.4278 -82.2717 320° Northwest 411 473 22,500 -2,940 Descending FAA TRACON SMA TRACON (SMA)
07:19PM 41.4531 -82.3167 307° West 377 434 21,600 -2,280 Descending FAA TRACON SMA TRACON (SMA)
07:19PM 41.4675 -82.3364 314° West 373 429 21,000 -2,220 Descending FAA TRACON SMA TRACON (SMA)
07:19PM 41.4942 -82.3831 307° West 385 443 20,100 -2,880 Descending FAA TRACON SMA TRACON (SMA)
07:20PM 41.5194 -82.4242 309° West 356 410 19,100 -2,700 Descending FAA TRACON SMA TRACON (SMA)
07:20PM 41.5400 -82.4619 306° West 374 430 18,300 -2,580 Descending FAA TRACON SMA TRACON (SMA)
07:20PM 41.5594 -82.4942 309° West 362 417 17,400 -2,880 Descending FAA TRACON SMA TRACON (SMA)
07:21PM 41.5833 -82.5342 309° West 359 413 16,400 -2,700 Descending FAA TRACON SMA TRACON (SMA)
07:21PM 41.6022 -82.5661 308° West 357 411 15,600 -2,400 Descending FAA TRACON SMA TRACON (SMA)
07:21PM 41.6211 -82.5975 309° West 355 409 14,800 -2,400 Descending FAA TRACON SMA TRACON (SMA)
07:22PM 41.6444 -82.6367 309° West 351 404 14,000 -2,280 Descending FAA TRACON SMA TRACON (SMA)
07:22PM 41.6628 -82.6669 309° West 346 398 13,300 -2,280 Descending FAA TRACON SMA TRACON (SMA)
07:22PM 41.6808 -82.6978 308° West 344 396 12,500 -2,040 Descending FAA TRACON SMA TRACON (SMA)
07:23PM 41.7008 -82.7339 307° West 342 394 12,000 -780 Descending FAA TRACON SMA TRACON (SMA)
07:23PM 41.7214 -82.7667 310° West 340 391 12,000  Level FAA TRACON SMA TRACON (SMA)
07:23PM 41.7411 -82.7953 313° West 341 392 12,000  Level FAA TRACON SMA TRACON (SMA)
07:24PM 41.7686 -82.8278 319° Northwest 350 403 12,000  Level FAA TRACON SMA TRACON (SMA)
07:24PM 41.7903 -82.8539 318° Northwest 344 396 12,000  Level FAA TRACON SMA TRACON (SMA)
07:24PM 41.8117 -82.8806 317° Northwest 341 392 12,000  Level FAA TRACON SMA TRACON (SMA)
07:25PM 41.8383 -82.9139 317° Northwest 342 394 12,000  Level FAA TRACON SMA TRACON (SMA)
07:25PM 41.8600 -82.9406 317° Northwest 342 394 12,000  Level FAA TRACON SMA TRACON (SMA)
07:25PM 41.8819 -82.9669 318° Northwest 343 395 12,000  Level FAA TRACON SMA TRACON (SMA)
07:26PM 41.9094 -82.9997 318° Northwest 344 396 12,000  Level FAA TRACON SMA TRACON (SMA)
07:26PM 41.9314 -83.0261 318° Northwest 344 396 12,000  Level FAA TRACON SMA TRACON (SMA)
07:26PM 41.9533 -83.0522 318° Northwest 343 395 12,000  Level FAA TRACON SMA TRACON (SMA)
07:27PM 41.9778 -83.0814 318° Northwest 343 395 12,000 -180 Level FAA TRACON SMA TRACON (SMA)
07:27PM 42.0022 -83.1111 318° Northwest 340 391 11,900 -180 Descending FAA TRACON SMA TRACON (SMA)
07:27PM 42.0211 -83.1350 317° Northwest 332 382 11,900 120 Level Cleveland Center
07:28PM 42.0436 -83.1639 316° Northwest 330 380 12,000 60 Climbing Cleveland Center
07:28PM 42.0800 -83.2047 320° Northwest 234 269 12,000  Level Cleveland Center
07:29PM 42.0881 -83.2161 314° West 276 318 12,000  Level Cleveland Center
07:29PM 42.1317 -83.2319 345° North 236 272 12,000 -540 Level Cleveland Center
07:30PM 42.1608 -83.2342 357° North 244 281 11,500 -1,680 Descending FAA TRACON SMA TRACON (SMA)
07:30PM 42.1842 -83.2331 North 270 311 10,800 -1,680 Descending FAA TRACON SMA TRACON (SMA)
07:30PM 42.2042 -83.2194 27° Northeast 254 292 10,400 -1,500 Descending FAA TRACON SMA TRACON (SMA)
07:31PM 42.2289 -83.2019 28° Northeast 261 300 9,800 -1,500 Descending FAA TRACON SMA TRACON (SMA)
07:31PM 42.2481 -83.1869 30° Northeast 260 299 9,400 -1,380 Descending FAA TRACON SMA TRACON (SMA)
07:31PM 42.2664 -83.1731 29° Northeast 249 287 8,900 -1,800 Descending FAA TRACON SMA TRACON (SMA)
07:32PM 42.2892 -83.1558 29° Northeast 244 281 8,200 -1,980 Descending FAA TRACON SMA TRACON (SMA)
07:32PM 42.3069 -83.1419 30° Northeast 242 278 7,600 -1,980 Descending FAA TRACON SMA TRACON (SMA)
07:32PM 42.3286 -83.1244 31° Northeast 238 274 6,900 -2,100 Descending FAA TRACON SMA TRACON (SMA)
07:33PM 42.3461 -83.1108 30° Northeast 237 273 6,200 -2,160 Descending FAA TRACON SMA TRACON (SMA)
07:33PM 42.3636 -83.0972 30° Northeast 236 272 5,500 -1,680 Descending FAA TRACON SMA TRACON (SMA)
07:33PM 42.3850 -83.1039 347° North 207 238 5,100 -900 Descending FAA TRACON SMA TRACON (SMA)
07:34PM 42.3925 -83.1208 301° West 162 186 4,900 -780 Descending FAA TRACON SMA TRACON (SMA)
07:34PM 42.3994 -83.1369 300° West 164 189 4,600 -900 Descending FAA TRACON SMA TRACON (SMA)
07:34PM 42.4000 -83.1586 272° West 159 183 4,300 -780 Descending FAA TRACON SMA TRACON (SMA)
07:35PM 42.3933 -83.1736 239° Southwest 158 182 4,100 -480 Descending FAA TRACON SMA TRACON (SMA)
07:35PM 42.3847 -83.1917 237° Southwest 156 180 4,000 -180 Descending FAA TRACON SMA TRACON (SMA)
07:35PM 42.3772 -83.2064 235° Southwest 158 182 4,000 -300 Level FAA TRACON SMA TRACON (SMA)
07:36PM 42.3678 -83.2233 233° Southwest 163 188 3,800 -480 Descending FAA TRACON SMA TRACON (SMA)
07:36PM 42.3531 -83.2347 210° Southwest 164 189 3,700 -600 Descending FAA TRACON SMA TRACON (SMA)
07:36PM 42.3406 -83.2444 210° Southwest 161 185 3,400 -780 Descending FAA TRACON SMA TRACON (SMA)
07:37PM 42.3275 -83.2542 209° Southwest 160 184 3,200 -780 Descending FAA TRACON SMA TRACON (SMA)
07:37PM 42.3161 -83.2628 209° Southwest 159 183 2,900 -900 Descending FAA TRACON SMA TRACON (SMA)
07:37PM 42.3017 -83.2736 209° Southwest 158 182 2,600 -900 Descending FAA TRACON SMA TRACON (SMA)
07:38PM 42.2908 -83.2817 209° Southwest 147 169 2,300 -900 Descending FAA TRACON SMA TRACON (SMA)
07:38PM 42.2794 -83.2900 208° Southwest 130 150 2,000 -780 Descending FAA TRACON SMA TRACON (SMA)
07:38PM 42.2683 -83.2983 209° Southwest 129 148 1,800 -600 Descending FAA TRACON SMA TRACON (SMA)
07:39PM 42.2589 -83.3053 209° Southwest 131 151 1,600 -780 Descending FAA TRACON SMA TRACON (SMA)
07:39PM 42.2469 -83.3139 208° Southwest 133 153 1,300 -900 Descending FAA TRACON SMA TRACON (SMA)
07:39PM 42.2353 -83.3225 209° Southwest 136 157 1,000 -780 Descending FAA TRACON SMA TRACON (SMA)
07:40PM 42.2256 -83.3297 209° Southwest 131 151 800 -600 Descending FAA TRACON SMA TRACON (SMA)